sensor_id;sensor_type;location;lat;lon;timestamp;P1;durP1;ratioP1;P2;durP2;ratioP2
3193;SDS011;1608;50.860;13.466;2023-04-15T00:01:11;4.50;;;3.40;;
3193;SDS011;1608;50.860;13.466;2023-04-15T00:03:43;5.40;;;3.50;;
3193;SDS011;1608;50.860;13.466;2023-04-15T00:06:10;5.50;;;3.70;;
3193;SDS011;1608;50.860;13.466;2023-04-15T00:08:38;3.80;;;2.90;;
3193;SDS011;1608;50.860;13.466;2023-04-15T00:11:05;4.37;;;2.90;;
3193;SDS011;1608;50.860;13.466;2023-04-15T00:13:32;4.50;;;3.17;;
3193;SDS011;1608;50.860;13.466;2023-04-15T00:15:59;5.83;;;3.67;;
3193;SDS011;1608;50.860;13.466;2023-04-15T00:18:26;4.33;;;3.83;;
3193;SDS011;1608;50.860;13.466;2023-04-15T00:20:53;5.13;;;2.90;;
3193;SDS011;1608;50.860;13.466;2023-04-15T00:23:20;5.70;;;3.20;;
3193;SDS011;1608;50.860;13.466;2023-04-15T00:25:48;5.73;;;3.53;;
3193;SDS011;1608;50.860;13.466;2023-04-15T00:28:16;4.03;;;2.90;;
3193;SDS011;1608;50.860;13.466;2023-04-15T00:30:43;3.43;;;2.63;;
3193;SDS011;1608;50.860;13.466;2023-04-15T00:33:10;3.70;;;3.10;;
3193;SDS011;1608;50.860;13.466;2023-04-15T00:35:38;4.70;;;2.60;;
3193;SDS011;1608;50.860;13.466;2023-04-15T00:38:05;2.97;;;2.17;;
3193;SDS011;1608;50.860;13.466;2023-04-15T00:40:32;4.50;;;3.40;;
3193;SDS011;1608;50.860;13.466;2023-04-15T00:43:00;2.80;;;2.20;;
3193;SDS011;1608;50.860;13.466;2023-04-15T00:45:28;3.23;;;1.90;;
3193;SDS011;1608;50.860;13.466;2023-04-15T00:47:55;3.10;;;2.23;;
3193;SDS011;1608;50.860;13.466;2023-04-15T00:50:23;3.37;;;2.30;;
3193;SDS011;1608;50.860;13.466;2023-04-15T00:52:50;3.50;;;2.60;;
3193;SDS011;1608;50.860;13.466;2023-04-15T00:55:17;5.00;;;2.47;;
3193;SDS011;1608;50.860;13.466;2023-04-15T00:57:44;3.43;;;2.00;;
3193;SDS011;1608;50.860;13.466;2023-04-15T01:00:13;3.27;;;2.30;;
3193;SDS011;1608;50.860;13.466;2023-04-15T01:02:40;4.30;;;2.57;;
3193;SDS011;1608;50.860;13.466;2023-04-15T01:05:07;3.17;;;2.10;;
3193;SDS011;1608;50.860;13.466;2023-04-15T01:07:34;3.20;;;1.90;;
3193;SDS011;1608;50.860;13.466;2023-04-15T01:10:01;3.67;;;2.43;;
3193;SDS011;1608;50.860;13.466;2023-04-15T01:12:29;2.57;;;2.23;;
3193;SDS011;1608;50.860;13.466;2023-04-15T01:14:59;2.53;;;1.87;;
3193;SDS011;1608;50.860;13.466;2023-04-15T01:17:28;1.90;;;1.80;;
3193;SDS011;1608;50.860;13.466;2023-04-15T01:19:55;3.43;;;1.80;;
3193;SDS011;1608;50.860;13.466;2023-04-15T01:22:23;2.63;;;1.80;;
3193;SDS011;1608;50.860;13.466;2023-04-15T01:24:53;2.50;;;1.47;;
3193;SDS011;1608;50.860;13.466;2023-04-15T01:27:27;2.63;;;1.90;;
3193;SDS011;1608;50.860;13.466;2023-04-15T01:29:54;2.50;;;2.13;;
3193;SDS011;1608;50.860;13.466;2023-04-15T01:32:21;4.03;;;3.00;;
3193;SDS011;1608;50.860;13.466;2023-04-15T01:34:48;2.50;;;2.07;;
3193;SDS011;1608;50.860;13.466;2023-04-15T01:37:15;2.50;;;2.20;;
3193;SDS011;1608;50.860;13.466;2023-04-15T01:39:42;2.80;;;2.10;;
3193;SDS011;1608;50.860;13.466;2023-04-15T01:42:09;2.13;;;1.80;;
3193;SDS011;1608;50.860;13.466;2023-04-15T01:44:37;2.93;;;1.87;;
3193;SDS011;1608;50.860;13.466;2023-04-15T01:47:04;2.20;;;2.00;;
3193;SDS011;1608;50.860;13.466;2023-04-15T01:49:32;2.53;;;1.37;;
3193;SDS011;1608;50.860;13.466;2023-04-15T01:51:59;2.70;;;1.73;;
3193;SDS011;1608;50.860;13.466;2023-04-15T01:54:26;2.30;;;1.80;;
3193;SDS011;1608;50.860;13.466;2023-04-15T01:56:53;1.90;;;1.37;;
3193;SDS011;1608;50.860;13.466;2023-04-15T01:59:20;2.37;;;1.47;;
3193;SDS011;1608;50.860;13.466;2023-04-15T02:01:49;2.10;;;1.90;;
3193;SDS011;1608;50.860;13.466;2023-04-15T02:04:16;1.80;;;1.70;;
3193;SDS011;1608;50.860;13.466;2023-04-15T02:06:43;2.43;;;1.80;;
3193;SDS011;1608;50.860;13.466;2023-04-15T02:09:10;2.70;;;1.90;;
3193;SDS011;1608;50.860;13.466;2023-04-15T02:11:37;6.60;;;1.90;;
3193;SDS011;1608;50.860;13.466;2023-04-15T02:14:04;2.87;;;1.87;;
3193;SDS011;1608;50.860;13.466;2023-04-15T02:16:31;2.90;;;1.80;;
3193;SDS011;1608;50.860;13.466;2023-04-15T02:18:59;3.80;;;2.73;;
3193;SDS011;1608;50.860;13.466;2023-04-15T02:21:27;3.10;;;2.50;;
3193;SDS011;1608;50.860;13.466;2023-04-15T02:23:54;4.00;;;3.27;;
3193;SDS011;1608;50.860;13.466;2023-04-15T02:26:21;4.93;;;3.60;;
3193;SDS011;1608;50.860;13.466;2023-04-15T02:28:49;3.60;;;3.03;;
3193;SDS011;1608;50.860;13.466;2023-04-15T02:31:16;5.10;;;3.03;;
3193;SDS011;1608;50.860;13.466;2023-04-15T02:33:43;5.17;;;3.53;;
3193;SDS011;1608;50.860;13.466;2023-04-15T02:36:12;6.50;;;3.90;;
3193;SDS011;1608;50.860;13.466;2023-04-15T02:38:38;3.70;;;3.40;;
3193;SDS011;1608;50.860;13.466;2023-04-15T02:41:07;5.57;;;4.60;;
3193;SDS011;1608;50.860;13.466;2023-04-15T02:43:34;8.57;;;4.53;;
3193;SDS011;1608;50.860;13.466;2023-04-15T02:46:02;6.30;;;4.17;;
3193;SDS011;1608;50.860;13.466;2023-04-15T02:48:29;4.20;;;3.47;;
3193;SDS011;1608;50.860;13.466;2023-04-15T02:51:09;3.53;;;2.90;;
3193;SDS011;1608;50.860;13.466;2023-04-15T02:53:38;3.23;;;2.63;;
3193;SDS011;1608;50.860;13.466;2023-04-15T02:56:05;4.80;;;3.90;;
3193;SDS011;1608;50.860;13.466;2023-04-15T02:58:33;5.40;;;3.97;;
3193;SDS011;1608;50.860;13.466;2023-04-15T03:01:00;5.00;;;4.17;;
3193;SDS011;1608;50.860;13.466;2023-04-15T03:03:27;3.83;;;3.43;;
3193;SDS011;1608;50.860;13.466;2023-04-15T03:05:54;3.20;;;2.90;;
3193;SDS011;1608;50.860;13.466;2023-04-15T03:08:22;3.83;;;2.80;;
3193;SDS011;1608;50.860;13.466;2023-04-15T03:10:49;5.57;;;3.87;;
3193;SDS011;1608;50.860;13.466;2023-04-15T03:13:17;3.53;;;3.23;;
3193;SDS011;1608;50.860;13.466;2023-04-15T03:15:45;4.60;;;3.70;;
3193;SDS011;1608;50.860;13.466;2023-04-15T03:18:12;3.83;;;2.77;;
3193;SDS011;1608;50.860;13.466;2023-04-15T03:20:39;3.67;;;2.80;;
3193;SDS011;1608;50.860;13.466;2023-04-15T03:23:06;2.63;;;2.43;;
3193;SDS011;1608;50.860;13.466;2023-04-15T03:25:34;2.63;;;2.43;;
3193;SDS011;1608;50.860;13.466;2023-04-15T03:28:02;3.57;;;2.40;;
3193;SDS011;1608;50.860;13.466;2023-04-15T03:30:29;3.50;;;2.50;;
3193;SDS011;1608;50.860;13.466;2023-04-15T03:32:56;3.73;;;2.50;;
3193;SDS011;1608;50.860;13.466;2023-04-15T03:35:22;3.10;;;2.40;;
3193;SDS011;1608;50.860;13.466;2023-04-15T03:37:49;1.90;;;1.70;;
3193;SDS011;1608;50.860;13.466;2023-04-15T03:40:16;3.33;;;2.17;;
3193;SDS011;1608;50.860;13.466;2023-04-15T03:42:44;2.97;;;2.70;;
3193;SDS011;1608;50.860;13.466;2023-04-15T03:45:11;4.30;;;2.70;;
3193;SDS011;1608;50.860;13.466;2023-04-15T03:47:38;3.47;;;2.63;;
3193;SDS011;1608;50.860;13.466;2023-04-15T03:50:05;5.70;;;3.17;;
3193;SDS011;1608;50.860;13.466;2023-04-15T03:52:33;5.53;;;3.20;;
3193;SDS011;1608;50.860;13.466;2023-04-15T03:54:59;4.50;;;2.77;;
3193;SDS011;1608;50.860;13.466;2023-04-15T03:57:26;3.63;;;3.20;;
3193;SDS011;1608;50.860;13.466;2023-04-15T03:59:54;7.37;;;4.70;;
3193;SDS011;1608;50.860;13.466;2023-04-15T04:02:21;9.43;;;5.40;;
3193;SDS011;1608;50.860;13.466;2023-04-15T04:04:48;6.20;;;4.60;;
3193;SDS011;1608;50.860;13.466;2023-04-15T04:07:15;5.23;;;3.93;;
3193;SDS011;1608;50.860;13.466;2023-04-15T04:09:42;5.83;;;4.50;;
3193;SDS011;1608;50.860;13.466;2023-04-15T04:12:09;5.30;;;3.20;;
3193;SDS011;1608;50.860;13.466;2023-04-15T04:14:36;4.30;;;3.03;;
3193;SDS011;1608;50.860;13.466;2023-04-15T04:17:04;4.63;;;2.60;;
3193;SDS011;1608;50.860;13.466;2023-04-15T04:19:31;3.80;;;2.93;;
3193;SDS011;1608;50.860;13.466;2023-04-15T04:21:57;4.53;;;2.87;;
3193;SDS011;1608;50.860;13.466;2023-04-15T04:24:24;3.33;;;2.70;;
3193;SDS011;1608;50.860;13.466;2023-04-15T04:26:51;3.87;;;2.97;;
3193;SDS011;1608;50.860;13.466;2023-04-15T04:29:18;3.00;;;2.07;;
3193;SDS011;1608;50.860;13.466;2023-04-15T04:31:45;4.30;;;3.80;;
3193;SDS011;1608;50.860;13.466;2023-04-15T04:34:14;8.50;;;5.13;;
3193;SDS011;1608;50.860;13.466;2023-04-15T04:36:41;9.40;;;5.67;;
3193;SDS011;1608;50.860;13.466;2023-04-15T04:39:07;11.20;;;6.60;;
3193;SDS011;1608;50.860;13.466;2023-04-15T04:41:34;8.93;;;6.80;;
3193;SDS011;1608;50.860;13.466;2023-04-15T04:44:01;12.13;;;6.83;;
3193;SDS011;1608;50.860;13.466;2023-04-15T04:46:28;9.17;;;6.37;;
3193;SDS011;1608;50.860;13.466;2023-04-15T04:48:55;12.93;;;6.47;;
3193;SDS011;1608;50.860;13.466;2023-04-15T04:51:23;7.43;;;5.27;;
3193;SDS011;1608;50.860;13.466;2023-04-15T04:53:50;9.77;;;6.60;;
3193;SDS011;1608;50.860;13.466;2023-04-15T04:56:17;11.10;;;5.70;;
3193;SDS011;1608;50.860;13.466;2023-04-15T04:58:44;6.37;;;4.30;;
3193;SDS011;1608;50.860;13.466;2023-04-15T05:01:10;6.13;;;3.30;;
3193;SDS011;1608;50.860;13.466;2023-04-15T05:03:37;11.23;;;3.47;;
3193;SDS011;1608;50.860;13.466;2023-04-15T05:06:05;4.00;;;2.47;;
3193;SDS011;1608;50.860;13.466;2023-04-15T05:08:34;3.73;;;2.00;;
3193;SDS011;1608;50.860;13.466;2023-04-15T05:11:01;3.23;;;1.93;;
3193;SDS011;1608;50.860;13.466;2023-04-15T05:13:28;1.53;;;1.17;;
3193;SDS011;1608;50.860;13.466;2023-04-15T05:15:55;1.60;;;1.30;;
3193;SDS011;1608;50.860;13.466;2023-04-15T05:18:21;1.47;;;1.00;;
3193;SDS011;1608;50.860;13.466;2023-04-15T05:20:48;1.30;;;1.07;;
3193;SDS011;1608;50.860;13.466;2023-04-15T05:23:15;1.50;;;1.17;;
3193;SDS011;1608;50.860;13.466;2023-04-15T05:25:44;1.13;;;0.90;;
3193;SDS011;1608;50.860;13.466;2023-04-15T05:28:10;1.53;;;1.10;;
3193;SDS011;1608;50.860;13.466;2023-04-15T05:30:37;1.40;;;0.90;;
3193;SDS011;1608;50.860;13.466;2023-04-15T05:33:05;1.40;;;1.10;;
3193;SDS011;1608;50.860;13.466;2023-04-15T05:35:32;1.30;;;1.03;;
3193;SDS011;1608;50.860;13.466;2023-04-15T05:37:58;2.40;;;1.57;;
3193;SDS011;1608;50.860;13.466;2023-04-15T05:40:25;1.10;;;1.00;;
3193;SDS011;1608;50.860;13.466;2023-04-15T05:42:53;2.10;;;1.23;;
3193;SDS011;1608;50.860;13.466;2023-04-15T05:45:20;2.30;;;1.33;;
3193;SDS011;1608;50.860;13.466;2023-04-15T05:47:47;1.40;;;0.90;;
3193;SDS011;1608;50.860;13.466;2023-04-15T05:50:15;1.43;;;1.07;;
3193;SDS011;1608;50.860;13.466;2023-04-15T05:52:41;1.30;;;0.90;;
3193;SDS011;1608;50.860;13.466;2023-04-15T05:55:09;1.17;;;1.07;;
3193;SDS011;1608;50.860;13.466;2023-04-15T05:57:36;1.20;;;0.90;;
3193;SDS011;1608;50.860;13.466;2023-04-15T06:00:05;1.50;;;1.03;;
3193;SDS011;1608;50.860;13.466;2023-04-15T06:02:33;1.03;;;0.80;;
3193;SDS011;1608;50.860;13.466;2023-04-15T06:05:00;0.97;;;0.70;;
3193;SDS011;1608;50.860;13.466;2023-04-15T06:07:27;0.93;;;0.80;;
3193;SDS011;1608;50.860;13.466;2023-04-15T06:09:54;0.77;;;0.60;;
3193;SDS011;1608;50.860;13.466;2023-04-15T06:12:21;1.27;;;0.97;;
3193;SDS011;1608;50.860;13.466;2023-04-15T06:14:48;0.90;;;0.70;;
3193;SDS011;1608;50.860;13.466;2023-04-15T06:17:16;0.93;;;0.73;;
3193;SDS011;1608;50.860;13.466;2023-04-15T06:19:43;1.50;;;1.17;;
3193;SDS011;1608;50.860;13.466;2023-04-15T06:22:10;1.20;;;0.80;;
3193;SDS011;1608;50.860;13.466;2023-04-15T06:24:36;1.70;;;1.10;;
3193;SDS011;1608;50.860;13.466;2023-04-15T06:27:03;2.20;;;0.90;;
3193;SDS011;1608;50.860;13.466;2023-04-15T06:29:30;1.43;;;1.03;;
3193;SDS011;1608;50.860;13.466;2023-04-15T06:31:57;1.43;;;0.97;;
3193;SDS011;1608;50.860;13.466;2023-04-15T06:34:25;1.03;;;0.90;;
3193;SDS011;1608;50.860;13.466;2023-04-15T06:36:52;1.70;;;1.40;;
3193;SDS011;1608;50.860;13.466;2023-04-15T06:39:19;1.10;;;0.93;;
3193;SDS011;1608;50.860;13.466;2023-04-15T06:41:46;1.00;;;0.87;;
3193;SDS011;1608;50.860;13.466;2023-04-15T06:44:13;1.00;;;0.83;;
3193;SDS011;1608;50.860;13.466;2023-04-15T06:46:41;1.17;;;0.60;;
3193;SDS011;1608;50.860;13.466;2023-04-15T06:49:07;1.30;;;0.90;;
3193;SDS011;1608;50.860;13.466;2023-04-15T06:51:36;2.77;;;0.90;;
3193;SDS011;1608;50.860;13.466;2023-04-15T06:54:02;1.00;;;0.60;;
3193;SDS011;1608;50.860;13.466;2023-04-15T06:56:30;1.40;;;1.13;;
3193;SDS011;1608;50.860;13.466;2023-04-15T06:58:57;1.20;;;0.83;;
3193;SDS011;1608;50.860;13.466;2023-04-15T07:01:24;1.17;;;1.00;;
3193;SDS011;1608;50.860;13.466;2023-04-15T07:03:51;1.30;;;1.10;;
3193;SDS011;1608;50.860;13.466;2023-04-15T07:06:18;1.23;;;1.10;;
3193;SDS011;1608;50.860;13.466;2023-04-15T07:08:47;1.00;;;0.90;;
3193;SDS011;1608;50.860;13.466;2023-04-15T07:11:14;1.20;;;0.90;;
3193;SDS011;1608;50.860;13.466;2023-04-15T07:13:41;1.50;;;0.97;;
3193;SDS011;1608;50.860;13.466;2023-04-15T07:16:08;1.00;;;0.90;;
3193;SDS011;1608;50.860;13.466;2023-04-15T07:18:35;1.60;;;0.97;;
3193;SDS011;1608;50.860;13.466;2023-04-15T07:21:02;1.00;;;0.70;;
3193;SDS011;1608;50.860;13.466;2023-04-15T07:23:28;1.00;;;0.60;;
3193;SDS011;1608;50.860;13.466;2023-04-15T07:25:57;0.80;;;0.73;;
3193;SDS011;1608;50.860;13.466;2023-04-15T07:28:23;0.80;;;0.60;;
3193;SDS011;1608;50.860;13.466;2023-04-15T07:30:50;0.80;;;0.60;;
3193;SDS011;1608;50.860;13.466;2023-04-15T07:33:17;1.00;;;0.70;;
3193;SDS011;1608;50.860;13.466;2023-04-15T07:35:44;1.50;;;0.60;;
3193;SDS011;1608;50.860;13.466;2023-04-15T07:38:11;0.80;;;0.70;;
3193;SDS011;1608;50.860;13.466;2023-04-15T07:40:38;1.20;;;0.90;;
3193;SDS011;1608;50.860;13.466;2023-04-15T07:43:07;0.90;;;0.70;;
3193;SDS011;1608;50.860;13.466;2023-04-15T07:45:34;1.13;;;0.80;;
3193;SDS011;1608;50.860;13.466;2023-04-15T07:48:01;1.47;;;0.80;;
3193;SDS011;1608;50.860;13.466;2023-04-15T07:50:28;0.70;;;0.50;;
3193;SDS011;1608;50.860;13.466;2023-04-15T07:52:55;1.00;;;0.80;;
3193;SDS011;1608;50.860;13.466;2023-04-15T07:55:22;1.63;;;0.90;;
3193;SDS011;1608;50.860;13.466;2023-04-15T07:57:49;0.90;;;0.80;;
3193;SDS011;1608;50.860;13.466;2023-04-15T08:00:17;1.43;;;1.13;;
3193;SDS011;1608;50.860;13.466;2023-04-15T08:02:44;1.00;;;0.80;;
3193;SDS011;1608;50.860;13.466;2023-04-15T08:05:12;2.63;;;1.00;;
3193;SDS011;1608;50.860;13.466;2023-04-15T08:07:39;1.00;;;0.80;;
3193;SDS011;1608;50.860;13.466;2023-04-15T08:10:06;1.20;;;0.73;;
3193;SDS011;1608;50.860;13.466;2023-04-15T08:12:34;1.00;;;0.70;;
3193;SDS011;1608;50.860;13.466;2023-04-15T08:15:01;0.90;;;0.60;;
3193;SDS011;1608;50.860;13.466;2023-04-15T08:17:29;3.27;;;0.70;;
3193;SDS011;1608;50.860;13.466;2023-04-15T08:19:56;1.40;;;0.80;;
3193;SDS011;1608;50.860;13.466;2023-04-15T08:22:22;1.27;;;0.67;;
3193;SDS011;1608;50.860;13.466;2023-04-15T08:24:49;1.20;;;0.77;;
3193;SDS011;1608;50.860;13.466;2023-04-15T08:27:16;1.40;;;0.90;;
3193;SDS011;1608;50.860;13.466;2023-04-15T08:29:43;1.90;;;1.47;;
3193;SDS011;1608;50.860;13.466;2023-04-15T08:32:10;1.43;;;1.17;;
3193;SDS011;1608;50.860;13.466;2023-04-15T08:34:38;1.60;;;1.27;;
3193;SDS011;1608;50.860;13.466;2023-04-15T08:37:05;1.93;;;1.30;;
3193;SDS011;1608;50.860;13.466;2023-04-15T08:39:32;1.30;;;1.13;;
3193;SDS011;1608;50.860;13.466;2023-04-15T08:42:00;1.43;;;1.33;;
3193;SDS011;1608;50.860;13.466;2023-04-15T08:44:28;1.43;;;1.33;;
3193;SDS011;1608;50.860;13.466;2023-04-15T08:46:59;1.60;;;1.50;;
3193;SDS011;1608;50.860;13.466;2023-04-15T08:49:27;1.10;;;1.00;;
3193;SDS011;1608;50.860;13.466;2023-04-15T08:51:56;1.67;;;1.57;;
3193;SDS011;1608;50.860;13.466;2023-04-15T08:54:24;1.60;;;1.50;;
3193;SDS011;1608;50.860;13.466;2023-04-15T08:56:52;2.03;;;1.50;;
3193;SDS011;1608;50.860;13.466;2023-04-15T08:59:19;1.57;;;1.27;;
3193;SDS011;1608;50.860;13.466;2023-04-15T09:01:47;1.50;;;1.30;;
3193;SDS011;1608;50.860;13.466;2023-04-15T09:04:14;1.40;;;1.23;;
3193;SDS011;1608;50.860;13.466;2023-04-15T09:06:42;1.97;;;1.40;;
3193;SDS011;1608;50.860;13.466;2023-04-15T09:09:11;1.70;;;1.60;;
3193;SDS011;1608;50.860;13.466;2023-04-15T09:11:38;2.13;;;1.80;;
3193;SDS011;1608;50.860;13.466;2023-04-15T09:14:05;1.93;;;1.60;;
3193;SDS011;1608;50.860;13.466;2023-04-15T09:19:24;2.30;;;2.10;;
3193;SDS011;1608;50.860;13.466;2023-04-15T09:21:51;2.60;;;1.40;;
3193;SDS011;1608;50.860;13.466;2023-04-15T09:24:20;1.70;;;1.60;;
3193;SDS011;1608;50.860;13.466;2023-04-15T09:26:47;2.67;;;2.47;;
3193;SDS011;1608;50.860;13.466;2023-04-15T09:29:17;2.70;;;1.77;;
3193;SDS011;1608;50.860;13.466;2023-04-15T09:31:45;1.70;;;1.50;;
3193;SDS011;1608;50.860;13.466;2023-04-15T09:34:12;2.43;;;2.20;;
3193;SDS011;1608;50.860;13.466;2023-04-15T09:36:50;2.57;;;1.83;;
3193;SDS011;1608;50.860;13.466;2023-04-15T09:39:18;2.70;;;2.50;;
3193;SDS011;1608;50.860;13.466;2023-04-15T09:41:46;3.07;;;2.67;;
3193;SDS011;1608;50.860;13.466;2023-04-15T09:44:29;3.17;;;2.87;;
3193;SDS011;1608;50.860;13.466;2023-04-15T09:46:56;2.93;;;2.73;;
3193;SDS011;1608;50.860;13.466;2023-04-15T09:49:23;2.37;;;2.07;;
3193;SDS011;1608;50.860;13.466;2023-04-15T09:51:49;2.00;;;1.73;;
3193;SDS011;1608;50.860;13.466;2023-04-15T09:54:18;2.03;;;1.93;;
3193;SDS011;1608;50.860;13.466;2023-04-15T09:56:47;2.30;;;2.00;;
3193;SDS011;1608;50.860;13.466;2023-04-15T09:59:14;3.10;;;2.03;;
3193;SDS011;1608;50.860;13.466;2023-04-15T10:01:40;2.53;;;1.93;;
3193;SDS011;1608;50.860;13.466;2023-04-15T10:04:08;1.57;;;1.47;;
3193;SDS011;1608;50.860;13.466;2023-04-15T10:06:35;1.70;;;1.60;;
3193;SDS011;1608;50.860;13.466;2023-04-15T10:09:02;2.90;;;2.33;;
3193;SDS011;1608;50.860;13.466;2023-04-15T10:11:31;2.83;;;2.30;;
3193;SDS011;1608;50.860;13.466;2023-04-15T10:14:01;2.40;;;1.90;;
3193;SDS011;1608;50.860;13.466;2023-04-15T10:16:28;2.07;;;1.87;;
3193;SDS011;1608;50.860;13.466;2023-04-15T10:18:58;2.03;;;1.93;;
3193;SDS011;1608;50.860;13.466;2023-04-15T10:21:28;2.27;;;2.07;;
3193;SDS011;1608;50.860;13.466;2023-04-15T10:23:56;1.93;;;1.73;;
3193;SDS011;1608;50.860;13.466;2023-04-15T10:26:23;1.50;;;1.40;;
3193;SDS011;1608;50.860;13.466;2023-04-15T10:28:51;2.43;;;2.27;;
3193;SDS011;1608;50.860;13.466;2023-04-15T10:31:20;2.17;;;1.97;;
3193;SDS011;1608;50.860;13.466;2023-04-15T10:33:47;1.87;;;1.77;;
3193;SDS011;1608;50.860;13.466;2023-04-15T10:36:15;1.70;;;1.60;;
3193;SDS011;1608;50.860;13.466;2023-04-15T10:38:44;2.07;;;1.87;;
3193;SDS011;1608;50.860;13.466;2023-04-15T10:41:12;2.77;;;2.10;;
3193;SDS011;1608;50.860;13.466;2023-04-15T10:43:47;1.70;;;1.60;;
3193;SDS011;1608;50.860;13.466;2023-04-15T10:46:33;1.70;;;1.60;;
3193;SDS011;1608;50.860;13.466;2023-04-15T10:49:05;2.43;;;2.20;;
3193;SDS011;1608;50.860;13.466;2023-04-15T10:51:34;2.27;;;2.00;;
3193;SDS011;1608;50.860;13.466;2023-04-15T10:54:07;2.40;;;2.20;;
3193;SDS011;1608;50.860;13.466;2023-04-15T10:56:35;2.97;;;2.67;;
3193;SDS011;1608;50.860;13.466;2023-04-15T10:59:02;2.80;;;2.50;;
3193;SDS011;1608;50.860;13.466;2023-04-15T11:01:50;2.63;;;2.43;;
3193;SDS011;1608;50.860;13.466;2023-04-15T11:09:58;4.07;;;3.77;;
3193;SDS011;1608;50.860;13.466;2023-04-15T11:12:32;2.53;;;2.33;;
3193;SDS011;1608;50.860;13.466;2023-04-15T11:17:54;4.53;;;1.80;;
3193;SDS011;1608;50.860;13.466;2023-04-15T11:20:21;2.33;;;2.13;;
3193;SDS011;1608;50.860;13.466;2023-04-15T11:22:49;2.90;;;2.60;;
3193;SDS011;1608;50.860;13.466;2023-04-15T11:25:23;2.40;;;2.20;;
3193;SDS011;1608;50.860;13.466;2023-04-15T11:27:50;3.77;;;2.70;;
3193;SDS011;1608;50.860;13.466;2023-04-15T11:30:19;2.30;;;2.10;;
3193;SDS011;1608;50.860;13.466;2023-04-15T11:32:46;3.07;;;2.30;;
3193;SDS011;1608;50.860;13.466;2023-04-15T11:35:15;3.50;;;3.00;;
3193;SDS011;1608;50.860;13.466;2023-04-15T11:37:42;3.47;;;3.13;;
3193;SDS011;1608;50.860;13.466;2023-04-15T11:40:09;6.37;;;3.40;;
3193;SDS011;1608;50.860;13.466;2023-04-15T11:42:36;3.90;;;3.50;;
3193;SDS011;1608;50.860;13.466;2023-04-15T11:45:07;4.07;;;3.30;;
3193;SDS011;1608;50.860;13.466;2023-04-15T11:47:34;5.53;;;4.20;;
3193;SDS011;1608;50.860;13.466;2023-04-15T11:50:17;5.20;;;4.40;;
3193;SDS011;1608;50.860;13.466;2023-04-15T11:52:53;3.70;;;3.40;;
3193;SDS011;1608;50.860;13.466;2023-04-15T11:55:21;5.60;;;4.37;;
3193;SDS011;1608;50.860;13.466;2023-04-15T11:57:49;7.33;;;4.37;;
3193;SDS011;1608;50.860;13.466;2023-04-15T12:00:16;5.23;;;4.73;;
3193;SDS011;1608;50.860;13.466;2023-04-15T12:02:45;5.10;;;4.60;;
3193;SDS011;1608;50.860;13.466;2023-04-15T12:05:11;5.80;;;5.20;;
3193;SDS011;1608;50.860;13.466;2023-04-15T12:07:58;5.30;;;4.80;;
3193;SDS011;1608;50.860;13.466;2023-04-15T12:10:25;6.70;;;4.90;;
3193;SDS011;1608;50.860;13.466;2023-04-15T12:12:52;5.53;;;5.03;;
3193;SDS011;1608;50.860;13.466;2023-04-15T12:15:20;5.87;;;5.30;;
3193;SDS011;1608;50.860;13.466;2023-04-15T12:17:47;9.30;;;6.40;;
3193;SDS011;1608;50.860;13.466;2023-04-15T12:20:19;6.33;;;4.20;;
3193;SDS011;1608;50.860;13.466;2023-04-15T12:22:50;9.63;;;7.50;;
3193;SDS011;1608;50.860;13.466;2023-04-15T12:25:18;5.73;;;5.20;;
3193;SDS011;1608;50.860;13.466;2023-04-15T12:27:59;5.60;;;4.60;;
3193;SDS011;1608;50.860;13.466;2023-04-15T12:30:26;3.77;;;3.47;;
3193;SDS011;1608;50.860;13.466;2023-04-15T12:32:53;7.00;;;5.37;;
3193;SDS011;1608;50.860;13.466;2023-04-15T12:35:20;9.07;;;5.30;;
3193;SDS011;1608;50.860;13.466;2023-04-15T12:37:47;5.97;;;4.90;;
3193;SDS011;1608;50.860;13.466;2023-04-15T12:40:16;8.07;;;5.17;;
3193;SDS011;1608;50.860;13.466;2023-04-15T12:42:45;7.27;;;5.80;;
3193;SDS011;1608;50.860;13.466;2023-04-15T12:45:12;8.50;;;6.93;;
3193;SDS011;1608;50.860;13.466;2023-04-15T12:47:39;11.50;;;7.37;;
3193;SDS011;1608;50.860;13.466;2023-04-15T12:50:06;6.93;;;5.83;;
3193;SDS011;1608;50.860;13.466;2023-04-15T12:52:33;7.17;;;6.27;;
3193;SDS011;1608;50.860;13.466;2023-04-15T12:55:00;8.93;;;6.63;;
3193;SDS011;1608;50.860;13.466;2023-04-15T12:57:28;8.20;;;7.40;;
3193;SDS011;1608;50.860;13.466;2023-04-15T12:59:55;9.60;;;7.67;;
3193;SDS011;1608;50.860;13.466;2023-04-15T13:02:22;9.67;;;7.47;;
3193;SDS011;1608;50.860;13.466;2023-04-15T13:04:49;10.77;;;7.90;;
3193;SDS011;1608;50.860;13.466;2023-04-15T13:07:16;9.87;;;8.00;;
3193;SDS011;1608;50.860;13.466;2023-04-15T13:09:43;9.23;;;8.13;;
3193;SDS011;1608;50.860;13.466;2023-04-15T13:12:10;9.50;;;7.97;;
3193;SDS011;1608;50.860;13.466;2023-04-15T13:14:39;9.70;;;7.93;;
3193;SDS011;1608;50.860;13.466;2023-04-15T13:17:06;9.93;;;8.93;;
3193;SDS011;1608;50.860;13.466;2023-04-15T13:19:34;9.90;;;7.40;;
3193;SDS011;1608;50.860;13.466;2023-04-15T13:22:01;9.33;;;8.10;;
3193;SDS011;1608;50.860;13.466;2023-04-15T13:24:27;9.90;;;7.43;;
3193;SDS011;1608;50.860;13.466;2023-04-15T13:26:54;8.70;;;7.33;;
3193;SDS011;1608;50.860;13.466;2023-04-15T13:29:23;10.37;;;8.10;;
3193;SDS011;1608;50.860;13.466;2023-04-15T13:31:51;10.47;;;7.50;;
3193;SDS011;1608;50.860;13.466;2023-04-15T13:34:18;10.70;;;8.60;;
3193;SDS011;1608;50.860;13.466;2023-04-15T13:36:45;9.57;;;7.90;;
3193;SDS011;1608;50.860;13.466;2023-04-15T13:39:12;9.93;;;8.67;;
3193;SDS011;1608;50.860;13.466;2023-04-15T13:41:39;11.07;;;8.67;;
3193;SDS011;1608;50.860;13.466;2023-04-15T13:44:06;9.30;;;8.30;;
3193;SDS011;1608;50.860;13.466;2023-04-15T13:46:32;9.80;;;8.50;;
3193;SDS011;1608;50.860;13.466;2023-04-15T13:49:01;10.80;;;9.30;;
3193;SDS011;1608;50.860;13.466;2023-04-15T13:51:27;10.83;;;9.13;;
3193;SDS011;1608;50.860;13.466;2023-04-15T13:53:55;9.80;;;8.17;;
3193;SDS011;1608;50.860;13.466;2023-04-15T13:56:22;14.00;;;9.60;;
3193;SDS011;1608;50.860;13.466;2023-04-15T13:58:50;11.57;;;8.60;;
3193;SDS011;1608;50.860;13.466;2023-04-15T14:01:18;9.10;;;7.37;;
3193;SDS011;1608;50.860;13.466;2023-04-15T14:03:45;7.90;;;6.20;;
3193;SDS011;1608;50.860;13.466;2023-04-15T14:06:14;16.37;;;7.17;;
3193;SDS011;1608;50.860;13.466;2023-04-15T14:08:40;9.77;;;6.40;;
3193;SDS011;1608;50.860;13.466;2023-04-15T14:11:07;9.60;;;8.00;;
3193;SDS011;1608;50.860;13.466;2023-04-15T14:13:34;7.73;;;6.47;;
3193;SDS011;1608;50.860;13.466;2023-04-15T14:16:01;8.67;;;7.70;;
3193;SDS011;1608;50.860;13.466;2023-04-15T14:18:28;8.60;;;7.30;;
3193;SDS011;1608;50.860;13.466;2023-04-15T14:20:55;10.33;;;7.10;;
3193;SDS011;1608;50.860;13.466;2023-04-15T14:23:23;12.10;;;8.73;;
3193;SDS011;1608;50.860;13.466;2023-04-15T14:25:50;8.73;;;7.50;;
3193;SDS011;1608;50.860;13.466;2023-04-15T14:28:17;9.67;;;7.80;;
3193;SDS011;1608;50.860;13.466;2023-04-15T14:30:44;10.33;;;7.60;;
3193;SDS011;1608;50.860;13.466;2023-04-15T14:33:10;8.67;;;7.63;;
3193;SDS011;1608;50.860;13.466;2023-04-15T14:35:37;8.77;;;6.63;;
3193;SDS011;1608;50.860;13.466;2023-04-15T14:38:04;8.60;;;6.90;;
3193;SDS011;1608;50.860;13.466;2023-04-15T14:40:35;8.63;;;7.73;;
3193;SDS011;1608;50.860;13.466;2023-04-15T14:43:02;11.60;;;8.37;;
3193;SDS011;1608;50.860;13.466;2023-04-15T14:45:29;14.03;;;9.90;;
3193;SDS011;1608;50.860;13.466;2023-04-15T14:47:56;10.87;;;8.30;;
3193;SDS011;1608;50.860;13.466;2023-04-15T14:50:23;8.93;;;7.80;;
3193;SDS011;1608;50.860;13.466;2023-04-15T14:52:50;8.20;;;7.30;;
3193;SDS011;1608;50.860;13.466;2023-04-15T14:55:17;8.80;;;7.90;;
3193;SDS011;1608;50.860;13.466;2023-04-15T14:57:47;9.00;;;8.03;;
3193;SDS011;1608;50.860;13.466;2023-04-15T15:00:14;10.13;;;8.80;;
3193;SDS011;1608;50.860;13.466;2023-04-15T15:02:40;9.40;;;8.03;;
3193;SDS011;1608;50.860;13.466;2023-04-15T15:05:08;9.33;;;8.03;;
3193;SDS011;1608;50.860;13.466;2023-04-15T15:07:36;9.97;;;7.77;;
3193;SDS011;1608;50.860;13.466;2023-04-15T15:10:05;11.30;;;7.87;;
3193;SDS011;1608;50.860;13.466;2023-04-15T15:12:32;10.10;;;7.40;;
3193;SDS011;1608;50.860;13.466;2023-04-15T15:15:01;9.47;;;7.77;;